Date,TemperatureHighF,TemperatureAvgF,TemperatureLowF,DewpointHighF,DewpointAvgF,DewpointLowF,HumidityHigh,HumidityAvg,HumidityLow,PressureMaxIn,PressureMinIn,WindSpeedMaxMPH,WindSpeedAvgMPH,GustSpeedMaxMPH,PrecipitationSumIn
2013-2-1,20,12,4,10,2,-5,74,62,53,30.44,30.21,28,7,38,0.00
2013-2-2,28,21,12,22,16,6,87,79,65,30.21,29.99,22,5,22,0.00
2013-2-3,26,20,11,19,13,5,89,75,56,30.09,29.97,27,3,33,0.01
2013-2-4,40,30,22,29,22,16,79,73,64,30.05,29.76,23,6,27,0.05
2013-2-5,38,31,24,32,26,20,89,81,75,30.07,29.80,19,4,24,0.01
2013-2-6,40,34,30,28,26,24,78,70,57,30.24,30.07,21,4,21,0.00
2013-2-7,56,41,31,43,33,25,91,75,47,30.11,29.77,26,6,29,0.16
2013-2-8,34,30,27,32,26,22,90,84,80,30.36,29.89,31,10,35,0.00
2013-2-9,42,34,28,28,25,22,88,71,54,30.37,30.07,16,4,16,0.00
2013-2-10,52,44,35,49,39,24,93,84,59,30.08,29.58,33,10,43,0.45
2013-2-11,50,37,28,46,27,23,88,67,59,30.07,29.59,28,8,38,0.00
2013-2-12,34,29,23,27,24,20,89,82,73,30.12,29.91,15,2,17,0.00
2013-2-13,48,35,26,32,28,23,90,76,50,29.92,29.72,22,2,24,0.00
2013-2-14,46,37,32,35,30,27,87,76,64,29.98,29.73,30,6,36,0.00
2013-2-15,34,31,24,29,22,14,86,70,46,30.17,29.96,22,6,25,0.00
2013-2-16,25,21,16,16,10,5,74,63,51,30.18,30.12,25,8,29,0.00
2013-2-17,33,23,10,18,10,3,80,57,36,30.23,30.03,15,4,17,0.00
2013-2-18,52,42,31,45,33,16,92,70,49,30.03,29.46,39,14,43,0.40
2013-2-19,32,23,18,28,14,7,86,69,60,30.20,29.65,37,16,43,0.01
2013-2-20,26,18,10,16,9,1,78,66,55,30.35,30.20,19,7,21,0.00
2013-2-21,30,25,16,27,19,11,91,79,69,30.34,29.86,25,7,27,0.00
2013-2-22,35,32,28,33,29,22,95,89,78,29.98,29.79,24,4,26,0.17
2013-2-23,30,26,20,22,20,16,85,76,66,29.99,29.94,15,3,18,0.03
2013-2-24,39,28,16,26,20,13,89,75,54,30.13,29.98,9,1,15,0.06
2013-2-25,44,35,25,30,26,21,85,71,53,30.13,29.79,27,6,29,0.00
2013-2-26,36,34,33,34,31,27,95,88,68,29.78,29.35,31,8,32,1.19
2013-2-27,33,32,32,32,31,29,95,93,88,29.69,29.47,20,4,21,0.05
2013-2-28,37,34,31,32,30,26,91,87,80,30.01,29.69,25,8,26,0.02